sensor_id;sensor_type;location;lat;lon;timestamp;P1;durP1;ratioP1;P2;durP2;ratioP2
14251;SDS011;7210;51.502;10.722;2023-07-28T00:00:42;5.53;;;0.80;;
14251;SDS011;7210;51.502;10.722;2023-07-28T00:03:10;4.13;;;1.13;;
14251;SDS011;7210;51.502;10.722;2023-07-28T00:05:39;3.73;;;1.10;;
14251;SDS011;7210;51.502;10.722;2023-07-28T00:08:06;4.20;;;1.20;;
14251;SDS011;7210;51.502;10.722;2023-07-28T00:10:39;6.90;;;1.30;;
14251;SDS011;7210;51.502;10.722;2023-07-28T00:13:07;4.73;;;0.97;;
14251;SDS011;7210;51.502;10.722;2023-07-28T00:15:36;2.90;;;0.90;;
14251;SDS011;7210;51.502;10.722;2023-07-28T00:18:04;3.33;;;1.07;;
14251;SDS011;7210;51.502;10.722;2023-07-28T00:20:32;4.20;;;1.10;;
14251;SDS011;7210;51.502;10.722;2023-07-28T00:23:01;3.03;;;0.80;;
14251;SDS011;7210;51.502;10.722;2023-07-28T00:25:30;5.10;;;1.00;;
14251;SDS011;7210;51.502;10.722;2023-07-28T00:27:57;5.13;;;0.90;;
14251;SDS011;7210;51.502;10.722;2023-07-28T00:30:25;2.97;;;1.00;;
14251;SDS011;7210;51.502;10.722;2023-07-28T00:33:07;3.80;;;1.13;;
14251;SDS011;7210;51.502;10.722;2023-07-28T00:35:38;2.03;;;0.90;;
14251;SDS011;7210;51.502;10.722;2023-07-28T00:38:24;3.27;;;0.93;;
14251;SDS011;7210;51.502;10.722;2023-07-28T00:41:18;3.80;;;1.10;;
14251;SDS011;7210;51.502;10.722;2023-07-28T00:43:53;3.13;;;0.80;;
14251;SDS011;7210;51.502;10.722;2023-07-28T00:46:27;4.73;;;1.20;;
14251;SDS011;7210;51.502;10.722;2023-07-28T00:48:58;2.70;;;0.90;;
14251;SDS011;7210;51.502;10.722;2023-07-28T00:51:30;2.87;;;0.90;;
14251;SDS011;7210;51.502;10.722;2023-07-28T00:54:06;4.87;;;0.97;;
14251;SDS011;7210;51.502;10.722;2023-07-28T00:56:42;4.20;;;1.07;;
14251;SDS011;7210;51.502;10.722;2023-07-28T00:59:12;5.00;;;1.00;;
14251;SDS011;7210;51.502;10.722;2023-07-28T01:01:46;4.83;;;1.10;;
14251;SDS011;7210;51.502;10.722;2023-07-28T01:04:17;3.33;;;1.00;;
14251;SDS011;7210;51.502;10.722;2023-07-28T01:06:52;4.40;;;0.80;;
14251;SDS011;7210;51.502;10.722;2023-07-28T01:09:52;2.97;;;1.00;;
14251;SDS011;7210;51.502;10.722;2023-07-28T01:12:34;6.93;;;1.20;;
14251;SDS011;7210;51.502;10.722;2023-07-28T01:15:05;5.57;;;0.93;;
14251;SDS011;7210;51.502;10.722;2023-07-28T01:17:43;5.97;;;1.00;;
14251;SDS011;7210;51.502;10.722;2023-07-28T01:20:19;2.63;;;1.00;;
14251;SDS011;7210;51.502;10.722;2023-07-28T01:25:55;8.77;;;1.27;;
14251;SDS011;7210;51.502;10.722;2023-07-28T01:28:46;2.90;;;0.90;;
14251;SDS011;7210;51.502;10.722;2023-07-28T01:31:20;4.20;;;1.00;;
14251;SDS011;7210;51.502;10.722;2023-07-28T01:33:53;5.23;;;1.47;;
14251;SDS011;7210;51.502;10.722;2023-07-28T01:36:24;3.63;;;1.07;;
14251;SDS011;7210;51.502;10.722;2023-07-28T01:38:55;1.93;;;1.00;;
14251;SDS011;7210;51.502;10.722;2023-07-28T01:41:30;4.17;;;1.00;;
14251;SDS011;7210;51.502;10.722;2023-07-28T01:44:05;4.93;;;1.10;;
14251;SDS011;7210;51.502;10.722;2023-07-28T01:46:38;3.80;;;1.00;;
14251;SDS011;7210;51.502;10.722;2023-07-28T01:49:09;2.63;;;1.20;;
14251;SDS011;7210;51.502;10.722;2023-07-28T01:51:38;5.30;;;1.10;;
14251;SDS011;7210;51.502;10.722;2023-07-28T01:54:13;5.77;;;1.07;;
14251;SDS011;7210;51.502;10.722;2023-07-28T01:56:44;3.37;;;1.10;;
14251;SDS011;7210;51.502;10.722;2023-07-28T01:59:19;3.23;;;1.03;;
14251;SDS011;7210;51.502;10.722;2023-07-28T02:01:56;3.10;;;1.10;;
14251;SDS011;7210;51.502;10.722;2023-07-28T02:04:28;4.93;;;1.57;;
14251;SDS011;7210;51.502;10.722;2023-07-28T02:07:07;5.23;;;1.20;;
14251;SDS011;7210;51.502;10.722;2023-07-28T02:09:36;4.63;;;1.00;;
14251;SDS011;7210;51.502;10.722;2023-07-28T02:12:10;3.47;;;1.17;;
14251;SDS011;7210;51.502;10.722;2023-07-28T02:14:45;1.60;;;1.20;;
14251;SDS011;7210;51.502;10.722;2023-07-28T02:17:22;1.60;;;1.13;;
14251;SDS011;7210;51.502;10.722;2023-07-28T02:19:53;3.07;;;1.30;;
14251;SDS011;7210;51.502;10.722;2023-07-28T02:22:24;3.97;;;1.10;;
14251;SDS011;7210;51.502;10.722;2023-07-28T02:24:56;1.23;;;0.90;;
14251;SDS011;7210;51.502;10.722;2023-07-28T02:27:27;2.20;;;1.00;;
14251;SDS011;7210;51.502;10.722;2023-07-28T02:30:03;4.33;;;1.23;;
14251;SDS011;7210;51.502;10.722;2023-07-28T02:32:33;4.93;;;1.20;;
14251;SDS011;7210;51.502;10.722;2023-07-28T02:35:05;1.53;;;0.90;;
14251;SDS011;7210;51.502;10.722;2023-07-28T02:37:36;3.03;;;1.13;;
14251;SDS011;7210;51.502;10.722;2023-07-28T02:40:13;1.33;;;1.00;;
14251;SDS011;7210;51.502;10.722;2023-07-28T02:42:42;3.33;;;0.80;;
14251;SDS011;7210;51.502;10.722;2023-07-28T02:45:13;0.90;;;0.70;;
14251;SDS011;7210;51.502;10.722;2023-07-28T02:47:45;1.63;;;1.17;;
14251;SDS011;7210;51.502;10.722;2023-07-28T02:50:23;1.43;;;0.90;;
14251;SDS011;7210;51.502;10.722;2023-07-28T02:52:53;1.97;;;0.80;;
14251;SDS011;7210;51.502;10.722;2023-07-28T02:55:27;1.67;;;0.97;;
14251;SDS011;7210;51.502;10.722;2023-07-28T02:58:10;2.03;;;0.83;;
14251;SDS011;7210;51.502;10.722;2023-07-28T03:00:43;1.07;;;0.77;;
14251;SDS011;7210;51.502;10.722;2023-07-28T03:03:20;2.50;;;0.90;;
14251;SDS011;7210;51.502;10.722;2023-07-28T03:05:52;1.00;;;0.90;;
14251;SDS011;7210;51.502;10.722;2023-07-28T03:08:24;2.47;;;0.77;;
14251;SDS011;7210;51.502;10.722;2023-07-28T03:11:15;1.07;;;0.80;;
14251;SDS011;7210;51.502;10.722;2023-07-28T03:13:56;0.90;;;0.70;;
14251;SDS011;7210;51.502;10.722;2023-07-28T03:16:27;4.07;;;1.00;;
14251;SDS011;7210;51.502;10.722;2023-07-28T03:19:00;2.63;;;0.90;;
14251;SDS011;7210;51.502;10.722;2023-07-28T03:21:33;1.67;;;0.60;;
14251;SDS011;7210;51.502;10.722;2023-07-28T03:24:07;1.90;;;0.83;;
14251;SDS011;7210;51.502;10.722;2023-07-28T03:26:39;1.60;;;0.90;;
14251;SDS011;7210;51.502;10.722;2023-07-28T03:29:22;0.93;;;0.90;;
14251;SDS011;7210;51.502;10.722;2023-07-28T03:32:00;1.83;;;0.73;;
14251;SDS011;7210;51.502;10.722;2023-07-28T03:34:32;1.73;;;0.90;;
14251;SDS011;7210;51.502;10.722;2023-07-28T03:37:10;3.30;;;1.00;;
14251;SDS011;7210;51.502;10.722;2023-07-28T03:39:46;1.63;;;1.10;;
14251;SDS011;7210;51.502;10.722;2023-07-28T03:42:23;1.53;;;0.90;;
14251;SDS011;7210;51.502;10.722;2023-07-28T03:44:53;4.07;;;0.80;;
14251;SDS011;7210;51.502;10.722;2023-07-28T03:47:25;3.00;;;1.00;;
14251;SDS011;7210;51.502;10.722;2023-07-28T03:49:56;1.43;;;0.80;;
14251;SDS011;7210;51.502;10.722;2023-07-28T03:52:24;1.23;;;0.80;;
14251;SDS011;7210;51.502;10.722;2023-07-28T03:54:53;1.73;;;0.80;;
14251;SDS011;7210;51.502;10.722;2023-07-28T03:57:23;1.70;;;0.80;;
14251;SDS011;7210;51.502;10.722;2023-07-28T03:59:58;1.00;;;0.70;;
14251;SDS011;7210;51.502;10.722;2023-07-28T04:02:44;2.10;;;0.90;;
14251;SDS011;7210;51.502;10.722;2023-07-28T04:05:17;2.23;;;0.97;;
14251;SDS011;7210;51.502;10.722;2023-07-28T04:07:48;1.00;;;0.90;;
14251;SDS011;7210;51.502;10.722;2023-07-28T04:10:23;1.77;;;0.90;;
14251;SDS011;7210;51.502;10.722;2023-07-28T04:12:57;1.27;;;0.93;;
14251;SDS011;7210;51.502;10.722;2023-07-28T04:15:27;1.33;;;0.90;;
14251;SDS011;7210;51.502;10.722;2023-07-28T04:18:00;3.10;;;1.03;;
14251;SDS011;7210;51.502;10.722;2023-07-28T04:20:38;1.93;;;1.00;;
14251;SDS011;7210;51.502;10.722;2023-07-28T04:23:11;2.57;;;0.90;;
14251;SDS011;7210;51.502;10.722;2023-07-28T04:25:47;0.70;;;0.70;;
14251;SDS011;7210;51.502;10.722;2023-07-28T04:28:21;2.37;;;1.00;;
14251;SDS011;7210;51.502;10.722;2023-07-28T04:30:55;2.80;;;0.80;;
14251;SDS011;7210;51.502;10.722;2023-07-28T04:33:46;1.40;;;0.80;;
14251;SDS011;7210;51.502;10.722;2023-07-28T04:36:24;3.27;;;0.90;;
14251;SDS011;7210;51.502;10.722;2023-07-28T04:39:03;3.00;;;1.00;;
14251;SDS011;7210;51.502;10.722;2023-07-28T04:41:34;3.77;;;1.10;;
14251;SDS011;7210;51.502;10.722;2023-07-28T04:44:07;2.57;;;1.10;;
14251;SDS011;7210;51.502;10.722;2023-07-28T04:46:43;2.00;;;1.20;;
14251;SDS011;7210;51.502;10.722;2023-07-28T04:49:16;1.17;;;0.90;;
14251;SDS011;7210;51.502;10.722;2023-07-28T04:52:06;1.70;;;0.83;;
14251;SDS011;7210;51.502;10.722;2023-07-28T04:54:49;1.33;;;0.87;;
14251;SDS011;7210;51.502;10.722;2023-07-28T04:57:25;1.30;;;0.90;;
14251;SDS011;7210;51.502;10.722;2023-07-28T04:59:58;1.13;;;1.00;;
14251;SDS011;7210;51.502;10.722;2023-07-28T05:02:46;1.20;;;1.00;;
14251;SDS011;7210;51.502;10.722;2023-07-28T05:05:23;4.80;;;0.90;;
14251;SDS011;7210;51.502;10.722;2023-07-28T05:08:04;1.67;;;0.93;;
14251;SDS011;7210;51.502;10.722;2023-07-28T05:10:38;1.70;;;0.80;;
14251;SDS011;7210;51.502;10.722;2023-07-28T05:13:17;1.10;;;1.00;;
14251;SDS011;7210;51.502;10.722;2023-07-28T05:15:53;2.00;;;0.90;;
14251;SDS011;7210;51.502;10.722;2023-07-28T05:18:56;1.03;;;0.90;;
14251;SDS011;7210;51.502;10.722;2023-07-28T05:22:03;1.27;;;0.93;;
14251;SDS011;7210;51.502;10.722;2023-07-28T05:24:53;1.47;;;0.80;;
14251;SDS011;7210;51.502;10.722;2023-07-28T05:27:29;0.70;;;0.70;;
14251;SDS011;7210;51.502;10.722;2023-07-28T05:30:04;1.00;;;0.90;;
14251;SDS011;7210;51.502;10.722;2023-07-28T05:32:37;2.33;;;1.13;;
14251;SDS011;7210;51.502;10.722;2023-07-28T05:35:24;1.10;;;0.93;;
14251;SDS011;7210;51.502;10.722;2023-07-28T05:38:01;0.93;;;0.93;;
14251;SDS011;7210;51.502;10.722;2023-07-28T05:40:36;2.77;;;1.17;;
14251;SDS011;7210;51.502;10.722;2023-07-28T05:43:17;1.87;;;0.90;;
14251;SDS011;7210;51.502;10.722;2023-07-28T05:45:46;2.50;;;1.23;;
14251;SDS011;7210;51.502;10.722;2023-07-28T05:48:14;1.83;;;1.10;;
14251;SDS011;7210;51.502;10.722;2023-07-28T05:50:41;1.90;;;0.87;;
14251;SDS011;7210;51.502;10.722;2023-07-28T05:53:10;2.07;;;0.97;;
14251;SDS011;7210;51.502;10.722;2023-07-28T05:55:40;1.23;;;1.13;;
14251;SDS011;7210;51.502;10.722;2023-07-28T05:58:08;1.10;;;1.00;;
14251;SDS011;7210;51.502;10.722;2023-07-28T06:00:38;2.43;;;1.10;;
14251;SDS011;7210;51.502;10.722;2023-07-28T06:03:13;1.63;;;1.00;;
14251;SDS011;7210;51.502;10.722;2023-07-28T06:05:59;1.33;;;0.90;;
14251;SDS011;7210;51.502;10.722;2023-07-28T06:08:28;1.73;;;1.00;;
14251;SDS011;7210;51.502;10.722;2023-07-28T06:10:55;2.60;;;1.00;;
14251;SDS011;7210;51.502;10.722;2023-07-28T06:13:22;2.47;;;1.00;;
14251;SDS011;7210;51.502;10.722;2023-07-28T06:15:50;1.20;;;1.10;;
14251;SDS011;7210;51.502;10.722;2023-07-28T06:18:21;1.50;;;0.97;;
14251;SDS011;7210;51.502;10.722;2023-07-28T06:20:58;1.20;;;1.10;;
14251;SDS011;7210;51.502;10.722;2023-07-28T06:23:30;1.00;;;0.90;;
14251;SDS011;7210;51.502;10.722;2023-07-28T06:25:57;1.57;;;1.00;;
14251;SDS011;7210;51.502;10.722;2023-07-28T06:28:24;2.03;;;0.90;;
14251;SDS011;7210;51.502;10.722;2023-07-28T06:30:53;1.63;;;0.93;;
14251;SDS011;7210;51.502;10.722;2023-07-28T06:33:22;1.93;;;1.10;;
14251;SDS011;7210;51.502;10.722;2023-07-28T06:35:50;1.43;;;0.83;;
14251;SDS011;7210;51.502;10.722;2023-07-28T06:38:18;1.57;;;0.97;;
14251;SDS011;7210;51.502;10.722;2023-07-28T06:40:48;3.57;;;1.00;;
14251;SDS011;7210;51.502;10.722;2023-07-28T06:43:17;1.53;;;1.10;;
14251;SDS011;7210;51.502;10.722;2023-07-28T06:45:46;1.00;;;1.00;;
14251;SDS011;7210;51.502;10.722;2023-07-28T06:48:17;1.10;;;1.00;;
14251;SDS011;7210;51.502;10.722;2023-07-28T06:50:44;2.13;;;1.20;;
14251;SDS011;7210;51.502;10.722;2023-07-28T06:53:12;1.80;;;1.30;;
14251;SDS011;7210;51.502;10.722;2023-07-28T06:55:39;1.60;;;1.33;;
14251;SDS011;7210;51.502;10.722;2023-07-28T06:58:08;1.50;;;1.10;;
14251;SDS011;7210;51.502;10.722;2023-07-28T07:00:35;3.30;;;1.20;;
14251;SDS011;7210;51.502;10.722;2023-07-28T07:03:03;1.20;;;1.10;;
14251;SDS011;7210;51.502;10.722;2023-07-28T07:05:30;1.47;;;1.37;;
14251;SDS011;7210;51.502;10.722;2023-07-28T07:07:57;1.30;;;1.20;;
14251;SDS011;7210;51.502;10.722;2023-07-28T07:10:26;2.63;;;1.30;;
14251;SDS011;7210;51.502;10.722;2023-07-28T07:12:53;1.43;;;1.33;;
14251;SDS011;7210;51.502;10.722;2023-07-28T07:15:23;5.47;;;1.30;;
14251;SDS011;7210;51.502;10.722;2023-07-28T07:17:50;1.60;;;1.30;;
14251;SDS011;7210;51.502;10.722;2023-07-28T07:20:17;1.20;;;1.10;;
14251;SDS011;7210;51.502;10.722;2023-07-28T07:22:44;1.40;;;1.30;;
14251;SDS011;7210;51.502;10.722;2023-07-28T07:25:12;2.13;;;1.30;;
14251;SDS011;7210;51.502;10.722;2023-07-28T07:27:40;1.77;;;1.40;;
14251;SDS011;7210;51.502;10.722;2023-07-28T07:30:07;2.07;;;1.50;;
14251;SDS011;7210;51.502;10.722;2023-07-28T07:32:37;2.50;;;1.43;;
14251;SDS011;7210;51.502;10.722;2023-07-28T07:35:05;1.60;;;1.50;;
14251;SDS011;7210;51.502;10.722;2023-07-28T07:37:33;1.50;;;1.40;;
14251;SDS011;7210;51.502;10.722;2023-07-28T07:40:05;1.30;;;1.20;;
14251;SDS011;7210;51.502;10.722;2023-07-28T07:42:40;1.60;;;1.50;;
14251;SDS011;7210;51.502;10.722;2023-07-28T07:45:09;2.43;;;1.30;;
14251;SDS011;7210;51.502;10.722;2023-07-28T07:47:39;4.03;;;1.43;;
14251;SDS011;7210;51.502;10.722;2023-07-28T07:50:07;2.53;;;1.43;;
14251;SDS011;7210;51.502;10.722;2023-07-28T07:52:36;2.33;;;1.50;;
14251;SDS011;7210;51.502;10.722;2023-07-28T07:55:06;6.07;;;2.80;;
14251;SDS011;7210;51.502;10.722;2023-07-28T07:57:40;12.63;;;4.97;;
14251;SDS011;7210;51.502;10.722;2023-07-28T08:00:09;6.97;;;3.23;;
14251;SDS011;7210;51.502;10.722;2023-07-28T08:02:41;12.90;;;4.90;;
14251;SDS011;7210;51.502;10.722;2023-07-28T08:05:10;1.90;;;1.57;;
14251;SDS011;7210;51.502;10.722;2023-07-28T08:07:37;5.20;;;3.00;;
14251;SDS011;7210;51.502;10.722;2023-07-28T08:10:06;7.27;;;3.53;;
14251;SDS011;7210;51.502;10.722;2023-07-28T08:12:35;2.53;;;2.03;;
14251;SDS011;7210;51.502;10.722;2023-07-28T08:15:02;31.47;;;16.87;;
14251;SDS011;7210;51.502;10.722;2023-07-28T08:17:30;34.73;;;16.87;;
14251;SDS011;7210;51.502;10.722;2023-07-28T08:19:59;31.30;;;13.30;;
14251;SDS011;7210;51.502;10.722;2023-07-28T08:22:26;20.17;;;10.63;;
14251;SDS011;7210;51.502;10.722;2023-07-28T08:24:54;5.37;;;3.10;;
14251;SDS011;7210;51.502;10.722;2023-07-28T08:27:21;8.93;;;5.13;;
14251;SDS011;7210;51.502;10.722;2023-07-28T08:29:49;21.07;;;13.27;;
14251;SDS011;7210;51.502;10.722;2023-07-28T08:32:16;21.63;;;16.63;;
14251;SDS011;7210;51.502;10.722;2023-07-28T08:34:43;10.80;;;8.77;;
14251;SDS011;7210;51.502;10.722;2023-07-28T08:37:12;19.33;;;11.93;;
14251;SDS011;7210;51.502;10.722;2023-07-28T08:39:39;10.73;;;7.30;;
14251;SDS011;7210;51.502;10.722;2023-07-28T08:42:10;34.30;;;19.40;;
14251;SDS011;7210;51.502;10.722;2023-07-28T08:44:37;15.27;;;9.00;;
14251;SDS011;7210;51.502;10.722;2023-07-28T08:47:05;10.03;;;4.50;;
14251;SDS011;7210;51.502;10.722;2023-07-28T08:49:32;26.07;;;14.67;;
14251;SDS011;7210;51.502;10.722;2023-07-28T08:52:02;9.57;;;6.63;;
14251;SDS011;7210;51.502;10.722;2023-07-28T08:54:32;8.53;;;7.20;;
14251;SDS011;7210;51.502;10.722;2023-07-28T08:57:00;3.93;;;3.00;;
14251;SDS011;7210;51.502;10.722;2023-07-28T08:59:27;12.87;;;11.53;;
14251;SDS011;7210;51.502;10.722;2023-07-28T09:01:56;4.53;;;3.67;;
14251;SDS011;7210;51.502;10.722;2023-07-28T09:04:25;4.10;;;3.40;;
14251;SDS011;7210;51.502;10.722;2023-07-28T09:06:52;7.33;;;5.27;;
14251;SDS011;7210;51.502;10.722;2023-07-28T09:09:20;3.03;;;2.83;;
14251;SDS011;7210;51.502;10.722;2023-07-28T09:11:54;4.10;;;3.37;;
14251;SDS011;7210;51.502;10.722;2023-07-28T09:14:21;2.07;;;1.83;;
14251;SDS011;7210;51.502;10.722;2023-07-28T09:16:50;2.37;;;1.70;;
14251;SDS011;7210;51.502;10.722;2023-07-28T09:19:19;2.40;;;1.40;;
14251;SDS011;7210;51.502;10.722;2023-07-28T09:21:56;1.83;;;1.40;;
14251;SDS011;7210;51.502;10.722;2023-07-28T09:24:29;1.73;;;1.20;;
14251;SDS011;7210;51.502;10.722;2023-07-28T09:26:59;1.20;;;1.10;;
14251;SDS011;7210;51.502;10.722;2023-07-28T09:29:28;1.33;;;1.20;;
14251;SDS011;7210;51.502;10.722;2023-07-28T09:32:02;1.20;;;1.10;;
14251;SDS011;7210;51.502;10.722;2023-07-28T09:34:34;1.53;;;1.17;;
14251;SDS011;7210;51.502;10.722;2023-07-28T09:37:04;1.93;;;1.20;;
14251;SDS011;7210;51.502;10.722;2023-07-28T09:39:40;2.03;;;1.10;;
14251;SDS011;7210;51.502;10.722;2023-07-28T09:42:12;2.47;;;1.10;;
14251;SDS011;7210;51.502;10.722;2023-07-28T09:44:40;1.40;;;1.20;;
14251;SDS011;7210;51.502;10.722;2023-07-28T09:47:07;1.40;;;1.30;;
14251;SDS011;7210;51.502;10.722;2023-07-28T09:49:36;1.97;;;1.30;;
14251;SDS011;7210;51.502;10.722;2023-07-28T09:52:08;3.20;;;1.20;;
14251;SDS011;7210;51.502;10.722;2023-07-28T09:54:38;1.77;;;1.40;;
14251;SDS011;7210;51.502;10.722;2023-07-28T09:57:08;2.17;;;1.30;;
14251;SDS011;7210;51.502;10.722;2023-07-28T09:59:46;2.50;;;1.40;;
14251;SDS011;7210;51.502;10.722;2023-07-28T10:02:15;3.33;;;1.50;;
14251;SDS011;7210;51.502;10.722;2023-07-28T10:04:43;1.87;;;1.57;;
14251;SDS011;7210;51.502;10.722;2023-07-28T10:07:11;2.07;;;1.50;;
14251;SDS011;7210;51.502;10.722;2023-07-28T10:09:39;2.53;;;1.40;;
14251;SDS011;7210;51.502;10.722;2023-07-28T10:12:08;2.03;;;1.40;;
14251;SDS011;7210;51.502;10.722;2023-07-28T10:14:59;1.60;;;1.50;;
14251;SDS011;7210;51.502;10.722;2023-07-28T10:17:30;3.07;;;1.30;;
14251;SDS011;7210;51.502;10.722;2023-07-28T10:20:00;3.00;;;1.30;;
14251;SDS011;7210;51.502;10.722;2023-07-28T10:22:34;1.97;;;1.50;;
14251;SDS011;7210;51.502;10.722;2023-07-28T10:25:11;1.23;;;1.10;;
14251;SDS011;7210;51.502;10.722;2023-07-28T10:27:44;1.90;;;1.27;;
14251;SDS011;7210;51.502;10.722;2023-07-28T10:30:13;1.40;;;1.10;;
14251;SDS011;7210;51.502;10.722;2023-07-28T10:32:41;1.13;;;1.03;;
14251;SDS011;7210;51.502;10.722;2023-07-28T10:35:22;3.10;;;1.30;;
14251;SDS011;7210;51.502;10.722;2023-07-28T10:37:53;1.87;;;1.00;;
14251;SDS011;7210;51.502;10.722;2023-07-28T10:40:22;1.70;;;1.30;;
14251;SDS011;7210;51.502;10.722;2023-07-28T10:42:55;1.20;;;1.10;;
14251;SDS011;7210;51.502;10.722;2023-07-28T10:45:34;1.30;;;1.10;;
14251;SDS011;7210;51.502;10.722;2023-07-28T10:48:02;1.93;;;1.40;;
14251;SDS011;7210;51.502;10.722;2023-07-28T10:50:31;1.30;;;1.20;;
14251;SDS011;7210;51.502;10.722;2023-07-28T10:52:59;2.03;;;1.30;;
14251;SDS011;7210;51.502;10.722;2023-07-28T10:55:27;1.57;;;1.20;;
14251;SDS011;7210;51.502;10.722;2023-07-28T10:58:00;1.40;;;1.30;;
14251;SDS011;7210;51.502;10.722;2023-07-28T11:00:34;1.30;;;1.10;;
14251;SDS011;7210;51.502;10.722;2023-07-28T11:03:04;1.30;;;1.20;;
14251;SDS011;7210;51.502;10.722;2023-07-28T11:05:35;1.40;;;1.30;;
14251;SDS011;7210;51.502;10.722;2023-07-28T11:08:05;1.67;;;1.20;;
14251;SDS011;7210;51.502;10.722;2023-07-28T11:10:34;2.47;;;1.20;;
14251;SDS011;7210;51.502;10.722;2023-07-28T11:13:06;1.97;;;1.17;;
14251;SDS011;7210;51.502;10.722;2023-07-28T11:15:34;1.50;;;1.30;;
14251;SDS011;7210;51.502;10.722;2023-07-28T11:18:02;1.30;;;1.20;;
14251;SDS011;7210;51.502;10.722;2023-07-28T11:20:32;1.63;;;1.30;;
14251;SDS011;7210;51.502;10.722;2023-07-28T11:23:04;2.33;;;1.27;;
14251;SDS011;7210;51.502;10.722;2023-07-28T11:25:32;1.30;;;1.20;;
14251;SDS011;7210;51.502;10.722;2023-07-28T11:28:02;1.23;;;1.13;;
14251;SDS011;7210;51.502;10.722;2023-07-28T11:30:32;1.88;;;1.40;;
14251;SDS011;7210;51.502;10.722;2023-07-28T11:33:03;1.33;;;1.23;;
14251;SDS011;7210;51.502;10.722;2023-07-28T11:35:35;1.67;;;1.55;;
14251;SDS011;7210;51.502;10.722;2023-07-28T11:38:03;2.30;;;1.48;;
14251;SDS011;7210;51.502;10.722;2023-07-28T11:40:34;2.38;;;1.58;;
14251;SDS011;7210;51.502;10.722;2023-07-28T11:43:03;1.83;;;1.40;;
14251;SDS011;7210;51.502;10.722;2023-07-28T11:45:32;1.38;;;1.23;;
14251;SDS011;7210;51.502;10.722;2023-07-28T11:48:00;1.52;;;1.42;;
14251;SDS011;7210;51.502;10.722;2023-07-28T11:50:30;1.38;;;1.27;;
14251;SDS011;7210;51.502;10.722;2023-07-28T11:53:05;3.60;;;1.63;;
14251;SDS011;7210;51.502;10.722;2023-07-28T11:55:34;1.50;;;1.40;;
14251;SDS011;7210;51.502;10.722;2023-07-28T11:58:03;1.50;;;1.40;;
14251;SDS011;7210;51.502;10.722;2023-07-28T12:00:34;1.30;;;1.20;;
14251;SDS011;7210;51.502;10.722;2023-07-28T12:03:05;1.45;;;1.35;;
14251;SDS011;7210;51.502;10.722;2023-07-28T12:05:36;2.35;;;1.67;;
14251;SDS011;7210;51.502;10.722;2023-07-28T12:08:05;3.42;;;1.60;;
14251;SDS011;7210;51.502;10.722;2023-07-28T12:10:33;2.33;;;1.55;;
14251;SDS011;7210;51.502;10.722;2023-07-28T12:13:06;2.00;;;1.80;;
14251;SDS011;7210;51.502;10.722;2023-07-28T12:15:39;1.90;;;1.67;;
14251;SDS011;7210;51.502;10.722;2023-07-28T12:18:11;2.35;;;1.77;;
14251;SDS011;7210;51.502;10.722;2023-07-28T12:20:40;2.67;;;1.70;;
14251;SDS011;7210;51.502;10.722;2023-07-28T12:23:12;1.80;;;1.70;;
14251;SDS011;7210;51.502;10.722;2023-07-28T12:25:41;2.10;;;1.90;;
14251;SDS011;7210;51.502;10.722;2023-07-28T12:28:10;1.50;;;1.40;;
14251;SDS011;7210;51.502;10.722;2023-07-28T12:30:42;2.20;;;1.53;;
14251;SDS011;7210;51.502;10.722;2023-07-28T12:33:09;1.88;;;1.73;;
14251;SDS011;7210;51.502;10.722;2023-07-28T12:35:36;2.13;;;1.73;;
14251;SDS011;7210;51.502;10.722;2023-07-28T12:38:04;1.63;;;1.52;;
14251;SDS011;7210;51.502;10.722;2023-07-28T12:40:33;3.30;;;1.63;;
14251;SDS011;7210;51.502;10.722;2023-07-28T12:43:01;2.78;;;1.70;;
14251;SDS011;7210;51.502;10.722;2023-07-28T12:45:29;2.08;;;1.92;;
14251;SDS011;7210;51.502;10.722;2023-07-28T12:47:58;3.43;;;1.70;;
14251;SDS011;7210;51.502;10.722;2023-07-28T12:50:26;3.00;;;1.80;;
14251;SDS011;7210;51.502;10.722;2023-07-28T12:52:53;2.27;;;1.80;;
14251;SDS011;7210;51.502;10.722;2023-07-28T12:55:22;3.40;;;2.03;;
14251;SDS011;7210;51.502;10.722;2023-07-28T12:57:52;2.10;;;1.80;;
14251;SDS011;7210;51.502;10.722;2023-07-28T13:00:19;2.23;;;1.57;;
14251;SDS011;7210;51.502;10.722;2023-07-28T13:02:47;1.97;;;1.60;;
14251;SDS011;7210;51.502;10.722;2023-07-28T13:05:15;1.80;;;1.70;;
14251;SDS011;7210;51.502;10.722;2023-07-28T13:07:43;1.83;;;1.73;;
14251;SDS011;7210;51.502;10.722;2023-07-28T13:10:10;1.80;;;1.70;;
14251;SDS011;7210;51.502;10.722;2023-07-28T13:12:38;2.87;;;1.90;;
14251;SDS011;7210;51.502;10.722;2023-07-28T13:15:05;2.65;;;1.80;;
14251;SDS011;7210;51.502;10.722;2023-07-28T13:17:34;2.30;;;1.90;;
14251;SDS011;7210;51.502;10.722;2023-07-28T13:20:05;2.30;;;2.08;;
14251;SDS011;7210;51.502;10.722;2023-07-28T13:22:35;2.00;;;1.80;;
14251;SDS011;7210;51.502;10.722;2023-07-28T13:25:03;1.90;;;1.80;;
14251;SDS011;7210;51.502;10.722;2023-07-28T13:27:34;2.10;;;1.90;;
14251;SDS011;7210;51.502;10.722;2023-07-28T13:30:02;2.97;;;1.80;;
14251;SDS011;7210;51.502;10.722;2023-07-28T13:32:30;2.47;;;2.20;;
14251;SDS011;7210;51.502;10.722;2023-07-28T13:34:57;2.20;;;2.00;;
14251;SDS011;7210;51.502;10.722;2023-07-28T13:37:24;2.23;;;2.03;;
14251;SDS011;7210;51.502;10.722;2023-07-28T13:39:53;2.53;;;1.97;;
14251;SDS011;7210;51.502;10.722;2023-07-28T13:42:21;1.97;;;1.80;;
14251;SDS011;7210;51.502;10.722;2023-07-28T13:44:48;3.93;;;2.10;;
14251;SDS011;7210;51.502;10.722;2023-07-28T13:47:15;2.00;;;1.90;;
14251;SDS011;7210;51.502;10.722;2023-07-28T13:49:46;3.63;;;2.30;;
14251;SDS011;7210;51.502;10.722;2023-07-28T13:52:13;4.05;;;2.13;;
14251;SDS011;7210;51.502;10.722;2023-07-28T13:54:41;2.25;;;2.03;;
14251;SDS011;7210;51.502;10.722;2023-07-28T13:57:11;2.45;;;2.25;;
14251;SDS011;7210;51.502;10.722;2023-07-28T13:59:39;1.90;;;1.80;;
14251;SDS011;7210;51.502;10.722;2023-07-28T14:02:06;3.22;;;2.42;;
14251;SDS011;7210;51.502;10.722;2023-07-28T14:04:34;2.72;;;1.95;;
14251;SDS011;7210;51.502;10.722;2023-07-28T14:07:01;2.95;;;2.08;;
14251;SDS011;7210;51.502;10.722;2023-07-28T14:09:34;3.75;;;2.05;;
14251;SDS011;7210;51.502;10.722;2023-07-28T14:12:04;2.33;;;2.08;;
14251;SDS011;7210;51.502;10.722;2023-07-28T14:14:45;2.30;;;2.10;;
14251;SDS011;7210;51.502;10.722;2023-07-28T14:17:16;2.72;;;2.13;;
14251;SDS011;7210;51.502;10.722;2023-07-28T14:19:44;1.98;;;1.88;;
14251;SDS011;7210;51.502;10.722;2023-07-28T14:22:15;6.68;;;2.17;;
14251;SDS011;7210;51.502;10.722;2023-07-28T14:24:42;2.33;;;2.13;;
14251;SDS011;7210;51.502;10.722;2023-07-28T14:27:09;3.78;;;1.90;;
14251;SDS011;7210;51.502;10.722;2023-07-28T14:29:37;2.90;;;2.20;;
14251;SDS011;7210;51.502;10.722;2023-07-28T14:32:06;8.95;;;2.20;;
14251;SDS011;7210;51.502;10.722;2023-07-28T14:34:36;3.83;;;2.20;;
14251;SDS011;7210;51.502;10.722;2023-07-28T14:37:04;2.95;;;2.35;;
14251;SDS011;7210;51.502;10.722;2023-07-28T14:39:32;2.80;;;2.25;;
14251;SDS011;7210;51.502;10.722;2023-07-28T14:42:04;4.50;;;2.00;;
14251;SDS011;7210;51.502;10.722;2023-07-28T14:44:40;6.53;;;2.30;;
14251;SDS011;7210;51.502;10.722;2023-07-28T14:47:09;3.63;;;2.30;;
14251;SDS011;7210;51.502;10.722;2023-07-28T14:49:37;4.30;;;2.45;;
14251;SDS011;7210;51.502;10.722;2023-07-28T14:52:05;2.60;;;2.40;;
14251;SDS011;7210;51.502;10.722;2023-07-28T14:54:36;4.03;;;3.72;;
14251;SDS011;7210;51.502;10.722;2023-07-28T14:57:03;2.65;;;2.45;;
14251;SDS011;7210;51.502;10.722;2023-07-28T14:59:31;2.17;;;1.92;;
14251;SDS011;7210;51.502;10.722;2023-07-28T15:01:59;2.78;;;1.60;;
14251;SDS011;7210;51.502;10.722;2023-07-28T15:04:27;1.70;;;1.60;;
14251;SDS011;7210;51.502;10.722;2023-07-28T15:06:55;1.80;;;1.70;;
14251;SDS011;7210;51.502;10.722;2023-07-28T15:09:23;2.10;;;1.60;;
14251;SDS011;7210;51.502;10.722;2023-07-28T15:11:50;1.48;;;1.38;;
14251;SDS011;7210;51.502;10.722;2023-07-28T15:14:18;3.63;;;1.40;;